sensor_id;sensor_type;location;lat;lon;timestamp;P1;durP1;ratioP1;P2;durP2;ratioP2
32038;SDS011;18549;42.286;22.688;2023-07-08T00:00:13;11.20;;;6.93;;
32038;SDS011;18549;42.286;22.688;2023-07-08T00:02:41;13.48;;;7.47;;
32038;SDS011;18549;42.286;22.688;2023-07-08T00:05:10;10.85;;;7.05;;
32038;SDS011;18549;42.286;22.688;2023-07-08T00:07:37;14.52;;;7.90;;
32038;SDS011;18549;42.286;22.688;2023-07-08T00:10:10;11.12;;;7.65;;
32038;SDS011;18549;42.286;22.688;2023-07-08T00:12:38;8.85;;;7.28;;
32038;SDS011;18549;42.286;22.688;2023-07-08T00:15:06;8.88;;;7.37;;
32038;SDS011;18549;42.286;22.688;2023-07-08T00:17:33;15.48;;;8.02;;
32038;SDS011;18549;42.286;22.688;2023-07-08T00:20:01;7.87;;;6.68;;
32038;SDS011;18549;42.286;22.688;2023-07-08T00:22:28;9.77;;;7.53;;
32038;SDS011;18549;42.286;22.688;2023-07-08T00:24:55;13.20;;;7.37;;
32038;SDS011;18549;42.286;22.688;2023-07-08T00:27:21;9.00;;;7.10;;
32038;SDS011;18549;42.286;22.688;2023-07-08T00:29:48;8.65;;;7.55;;
32038;SDS011;18549;42.286;22.688;2023-07-08T00:32:15;12.95;;;7.43;;
32038;SDS011;18549;42.286;22.688;2023-07-08T00:34:42;11.15;;;7.60;;
32038;SDS011;18549;42.286;22.688;2023-07-08T00:37:11;13.73;;;8.00;;
32038;SDS011;18549;42.286;22.688;2023-07-08T00:39:38;9.48;;;8.48;;
32038;SDS011;18549;42.286;22.688;2023-07-08T00:42:10;9.70;;;7.78;;
32038;SDS011;18549;42.286;22.688;2023-07-08T00:44:41;9.88;;;7.37;;
32038;SDS011;18549;42.286;22.688;2023-07-08T00:47:09;8.95;;;7.93;;
32038;SDS011;18549;42.286;22.688;2023-07-08T00:49:39;9.18;;;7.60;;
32038;SDS011;18549;42.286;22.688;2023-07-08T00:52:20;9.52;;;7.10;;
32038;SDS011;18549;42.286;22.688;2023-07-08T00:54:49;11.68;;;7.90;;
32038;SDS011;18549;42.286;22.688;2023-07-08T00:57:17;10.82;;;8.73;;
32038;SDS011;18549;42.286;22.688;2023-07-08T00:59:45;11.50;;;8.02;;
32038;SDS011;18549;42.286;22.688;2023-07-08T01:02:14;9.27;;;7.85;;
32038;SDS011;18549;42.286;22.688;2023-07-08T01:04:44;11.38;;;7.97;;
32038;SDS011;18549;42.286;22.688;2023-07-08T01:07:17;11.55;;;8.13;;
32038;SDS011;18549;42.286;22.688;2023-07-08T01:09:50;13.45;;;9.13;;
32038;SDS011;18549;42.286;22.688;2023-07-08T01:12:21;10.90;;;8.35;;
32038;SDS011;18549;42.286;22.688;2023-07-08T01:14:52;11.40;;;8.88;;
32038;SDS011;18549;42.286;22.688;2023-07-08T01:17:20;10.60;;;9.55;;
32038;SDS011;18549;42.286;22.688;2023-07-08T01:19:47;11.15;;;8.90;;
32038;SDS011;18549;42.286;22.688;2023-07-08T01:22:17;12.93;;;8.38;;
32038;SDS011;18549;42.286;22.688;2023-07-08T01:24:44;13.62;;;8.95;;
32038;SDS011;18549;42.286;22.688;2023-07-08T01:27:13;11.00;;;8.98;;
32038;SDS011;18549;42.286;22.688;2023-07-08T01:29:42;10.50;;;8.80;;
32038;SDS011;18549;42.286;22.688;2023-07-08T01:32:10;14.73;;;9.32;;
32038;SDS011;18549;42.286;22.688;2023-07-08T01:34:43;12.73;;;8.75;;
32038;SDS011;18549;42.286;22.688;2023-07-08T01:37:19;15.75;;;9.73;;
32038;SDS011;18549;42.286;22.688;2023-07-08T01:39:46;12.30;;;9.40;;
32038;SDS011;18549;42.286;22.688;2023-07-08T01:42:14;9.80;;;8.82;;
32038;SDS011;18549;42.286;22.688;2023-07-08T01:44:40;11.23;;;9.15;;
32038;SDS011;18549;42.286;22.688;2023-07-08T01:47:07;11.43;;;8.57;;
32038;SDS011;18549;42.286;22.688;2023-07-08T01:49:38;14.68;;;9.63;;
32038;SDS011;18549;42.286;22.688;2023-07-08T01:52:06;11.20;;;9.65;;
32038;SDS011;18549;42.286;22.688;2023-07-08T01:54:36;12.35;;;9.73;;
32038;SDS011;18549;42.286;22.688;2023-07-08T01:57:03;15.35;;;9.93;;
32038;SDS011;18549;42.286;22.688;2023-07-08T01:59:30;11.70;;;8.27;;
32038;SDS011;18549;42.286;22.688;2023-07-08T02:01:56;11.38;;;8.57;;
32038;SDS011;18549;42.286;22.688;2023-07-08T02:04:24;12.65;;;8.98;;
32038;SDS011;18549;42.286;22.688;2023-07-08T02:06:52;10.82;;;8.30;;
32038;SDS011;18549;42.286;22.688;2023-07-08T02:09:19;12.90;;;8.55;;
32038;SDS011;18549;42.286;22.688;2023-07-08T02:11:48;10.20;;;8.20;;
32038;SDS011;18549;42.286;22.688;2023-07-08T02:14:15;11.25;;;8.73;;
32038;SDS011;18549;42.286;22.688;2023-07-08T02:16:41;10.15;;;8.40;;
32038;SDS011;18549;42.286;22.688;2023-07-08T02:19:08;10.82;;;8.48;;
32038;SDS011;18549;42.286;22.688;2023-07-08T02:21:36;10.75;;;8.48;;
32038;SDS011;18549;42.286;22.688;2023-07-08T02:24:03;9.80;;;8.50;;
32038;SDS011;18549;42.286;22.688;2023-07-08T02:26:31;13.25;;;9.20;;
32038;SDS011;18549;42.286;22.688;2023-07-08T02:28:59;11.00;;;9.10;;
32038;SDS011;18549;42.286;22.688;2023-07-08T02:31:27;13.30;;;9.27;;
32038;SDS011;18549;42.286;22.688;2023-07-08T02:33:53;12.10;;;9.23;;
32038;SDS011;18549;42.286;22.688;2023-07-08T02:36:20;11.52;;;9.80;;
32038;SDS011;18549;42.286;22.688;2023-07-08T02:38:47;11.30;;;9.15;;
32038;SDS011;18549;42.286;22.688;2023-07-08T02:41:14;11.65;;;9.57;;
32038;SDS011;18549;42.286;22.688;2023-07-08T02:43:40;9.93;;;8.60;;
32038;SDS011;18549;42.286;22.688;2023-07-08T02:46:08;19.58;;;8.90;;
32038;SDS011;18549;42.286;22.688;2023-07-08T02:48:35;11.27;;;8.70;;
32038;SDS011;18549;42.286;22.688;2023-07-08T02:51:02;11.18;;;9.48;;
32038;SDS011;18549;42.286;22.688;2023-07-08T02:53:30;13.82;;;8.30;;
32038;SDS011;18549;42.286;22.688;2023-07-08T02:55:57;10.50;;;9.07;;
32038;SDS011;18549;42.286;22.688;2023-07-08T02:58:24;13.05;;;8.73;;
32038;SDS011;18549;42.286;22.688;2023-07-08T03:00:51;10.65;;;7.87;;
32038;SDS011;18549;42.286;22.688;2023-07-08T03:03:19;13.68;;;8.45;;
32038;SDS011;18549;42.286;22.688;2023-07-08T03:05:53;11.50;;;9.32;;
32038;SDS011;18549;42.286;22.688;2023-07-08T03:08:20;13.93;;;9.35;;
32038;SDS011;18549;42.286;22.688;2023-07-08T03:10:47;12.27;;;7.78;;
32038;SDS011;18549;42.286;22.688;2023-07-08T03:13:14;11.30;;;8.90;;
32038;SDS011;18549;42.286;22.688;2023-07-08T03:15:44;14.05;;;9.10;;
32038;SDS011;18549;42.286;22.688;2023-07-08T03:18:11;11.98;;;9.00;;
32038;SDS011;18549;42.286;22.688;2023-07-08T03:20:40;11.73;;;8.80;;
32038;SDS011;18549;42.286;22.688;2023-07-08T03:23:09;12.10;;;8.75;;
32038;SDS011;18549;42.286;22.688;2023-07-08T03:25:36;15.25;;;9.82;;
32038;SDS011;18549;42.286;22.688;2023-07-08T03:28:03;13.27;;;9.02;;
32038;SDS011;18549;42.286;22.688;2023-07-08T03:30:31;16.62;;;9.27;;
32038;SDS011;18549;42.286;22.688;2023-07-08T03:32:57;12.30;;;8.80;;
32038;SDS011;18549;42.286;22.688;2023-07-08T03:35:24;14.68;;;9.10;;
32038;SDS011;18549;42.286;22.688;2023-07-08T03:37:52;13.10;;;9.15;;
32038;SDS011;18549;42.286;22.688;2023-07-08T03:40:19;10.65;;;8.90;;
32038;SDS011;18549;42.286;22.688;2023-07-08T03:42:46;16.05;;;9.57;;
32038;SDS011;18549;42.286;22.688;2023-07-08T03:45:13;10.98;;;8.70;;
32038;SDS011;18549;42.286;22.688;2023-07-08T03:47:39;17.05;;;9.73;;
32038;SDS011;18549;42.286;22.688;2023-07-08T03:50:08;12.07;;;8.27;;
32038;SDS011;18549;42.286;22.688;2023-07-08T03:52:43;14.15;;;9.13;;
32038;SDS011;18549;42.286;22.688;2023-07-08T03:55:12;10.10;;;8.45;;
32038;SDS011;18549;42.286;22.688;2023-07-08T03:57:39;12.98;;;9.10;;
32038;SDS011;18549;42.286;22.688;2023-07-08T04:00:06;16.55;;;9.38;;
32038;SDS011;18549;42.286;22.688;2023-07-08T04:02:37;12.02;;;9.27;;
32038;SDS011;18549;42.286;22.688;2023-07-08T04:05:04;13.15;;;8.55;;
32038;SDS011;18549;42.286;22.688;2023-07-08T04:07:31;14.80;;;9.00;;
32038;SDS011;18549;42.286;22.688;2023-07-08T04:09:58;14.20;;;9.68;;
32038;SDS011;18549;42.286;22.688;2023-07-08T04:12:26;13.93;;;9.25;;
32038;SDS011;18549;42.286;22.688;2023-07-08T04:14:53;11.65;;;9.52;;
32038;SDS011;18549;42.286;22.688;2023-07-08T04:17:20;10.63;;;8.82;;
32038;SDS011;18549;42.286;22.688;2023-07-08T04:19:48;12.18;;;9.38;;
32038;SDS011;18549;42.286;22.688;2023-07-08T04:22:15;11.00;;;8.65;;
32038;SDS011;18549;42.286;22.688;2023-07-08T04:24:42;15.85;;;9.00;;
32038;SDS011;18549;42.286;22.688;2023-07-08T04:27:10;10.70;;;8.90;;
32038;SDS011;18549;42.286;22.688;2023-07-08T04:29:40;9.80;;;8.80;;
32038;SDS011;18549;42.286;22.688;2023-07-08T04:32:07;9.93;;;8.30;;
32038;SDS011;18549;42.286;22.688;2023-07-08T04:34:34;13.55;;;9.48;;
32038;SDS011;18549;42.286;22.688;2023-07-08T04:37:01;9.65;;;8.65;;
32038;SDS011;18549;42.286;22.688;2023-07-08T04:39:29;10.57;;;8.25;;
32038;SDS011;18549;42.286;22.688;2023-07-08T04:41:56;13.93;;;8.20;;
32038;SDS011;18549;42.286;22.688;2023-07-08T04:44:23;10.45;;;8.68;;
32038;SDS011;18549;42.286;22.688;2023-07-08T04:46:52;14.77;;;9.18;;
32038;SDS011;18549;42.286;22.688;2023-07-08T04:49:20;16.17;;;9.52;;
32038;SDS011;18549;42.286;22.688;2023-07-08T04:51:48;15.00;;;10.10;;
32038;SDS011;18549;42.286;22.688;2023-07-08T04:54:16;11.77;;;8.30;;
32038;SDS011;18549;42.286;22.688;2023-07-08T04:56:43;12.07;;;9.52;;
32038;SDS011;18549;42.286;22.688;2023-07-08T04:59:11;12.77;;;9.35;;
32038;SDS011;18549;42.286;22.688;2023-07-08T05:01:40;11.10;;;9.02;;
32038;SDS011;18549;42.286;22.688;2023-07-08T05:04:08;10.38;;;9.38;;
32038;SDS011;18549;42.286;22.688;2023-07-08T05:06:36;11.48;;;9.13;;
32038;SDS011;18549;42.286;22.688;2023-07-08T05:09:02;11.93;;;9.35;;
32038;SDS011;18549;42.286;22.688;2023-07-08T05:11:30;14.87;;;10.02;;
32038;SDS011;18549;42.286;22.688;2023-07-08T05:13:57;12.20;;;9.32;;
32038;SDS011;18549;42.286;22.688;2023-07-08T05:16:24;12.48;;;9.20;;
32038;SDS011;18549;42.286;22.688;2023-07-08T05:18:50;13.90;;;9.80;;
32038;SDS011;18549;42.286;22.688;2023-07-08T05:21:19;14.80;;;9.23;;
32038;SDS011;18549;42.286;22.688;2023-07-08T05:23:46;13.23;;;10.80;;
32038;SDS011;18549;42.286;22.688;2023-07-08T05:26:14;17.42;;;9.50;;
32038;SDS011;18549;42.286;22.688;2023-07-08T05:28:42;11.77;;;8.98;;
32038;SDS011;18549;42.286;22.688;2023-07-08T05:31:09;11.73;;;9.93;;
32038;SDS011;18549;42.286;22.688;2023-07-08T05:33:35;15.23;;;9.50;;
32038;SDS011;18549;42.286;22.688;2023-07-08T05:36:02;17.62;;;9.60;;
32038;SDS011;18549;42.286;22.688;2023-07-08T05:38:31;12.63;;;9.32;;
32038;SDS011;18549;42.286;22.688;2023-07-08T05:40:58;13.52;;;10.10;;
32038;SDS011;18549;42.286;22.688;2023-07-08T05:43:25;11.95;;;9.82;;
32038;SDS011;18549;42.286;22.688;2023-07-08T05:45:56;19.23;;;10.20;;
32038;SDS011;18549;42.286;22.688;2023-07-08T05:48:24;13.13;;;10.02;;
32038;SDS011;18549;42.286;22.688;2023-07-08T05:50:50;12.00;;;10.10;;
32038;SDS011;18549;42.286;22.688;2023-07-08T05:53:17;14.87;;;10.43;;
32038;SDS011;18549;42.286;22.688;2023-07-08T05:55:47;14.65;;;10.20;;
32038;SDS011;18549;42.286;22.688;2023-07-08T05:58:14;11.20;;;9.98;;
32038;SDS011;18549;42.286;22.688;2023-07-08T06:00:41;14.20;;;10.38;;
32038;SDS011;18549;42.286;22.688;2023-07-08T06:03:08;15.05;;;10.15;;
32038;SDS011;18549;42.286;22.688;2023-07-08T06:05:35;25.62;;;10.48;;
32038;SDS011;18549;42.286;22.688;2023-07-08T06:08:02;14.95;;;11.23;;
32038;SDS011;18549;42.286;22.688;2023-07-08T06:10:29;20.87;;;11.10;;
32038;SDS011;18549;42.286;22.688;2023-07-08T06:12:57;14.68;;;11.05;;
32038;SDS011;18549;42.286;22.688;2023-07-08T06:15:24;18.58;;;11.70;;
32038;SDS011;18549;42.286;22.688;2023-07-08T06:17:51;12.93;;;10.13;;
32038;SDS011;18549;42.286;22.688;2023-07-08T06:20:18;12.27;;;9.35;;
32038;SDS011;18549;42.286;22.688;2023-07-08T06:22:44;13.60;;;10.02;;
32038;SDS011;18549;42.286;22.688;2023-07-08T06:25:11;17.33;;;11.18;;
32038;SDS011;18549;42.286;22.688;2023-07-08T06:27:39;15.57;;;11.25;;
32038;SDS011;18549;42.286;22.688;2023-07-08T06:30:07;14.90;;;10.70;;
32038;SDS011;18549;42.286;22.688;2023-07-08T06:32:35;13.13;;;9.73;;
32038;SDS011;18549;42.286;22.688;2023-07-08T06:35:01;10.45;;;9.40;;
32038;SDS011;18549;42.286;22.688;2023-07-08T06:37:28;11.10;;;9.27;;
32038;SDS011;18549;42.286;22.688;2023-07-08T06:39:55;15.93;;;8.98;;
32038;SDS011;18549;42.286;22.688;2023-07-08T06:42:22;17.73;;;10.45;;
32038;SDS011;18549;42.286;22.688;2023-07-08T06:44:48;13.57;;;9.50;;
32038;SDS011;18549;42.286;22.688;2023-07-08T06:47:17;10.82;;;8.63;;
32038;SDS011;18549;42.286;22.688;2023-07-08T06:49:45;12.15;;;9.02;;
32038;SDS011;18549;42.286;22.688;2023-07-08T06:52:12;11.32;;;8.07;;
32038;SDS011;18549;42.286;22.688;2023-07-08T06:54:39;10.18;;;9.05;;
32038;SDS011;18549;42.286;22.688;2023-07-08T06:57:06;11.90;;;7.87;;
32038;SDS011;18549;42.286;22.688;2023-07-08T06:59:33;10.15;;;7.45;;
32038;SDS011;18549;42.286;22.688;2023-07-08T07:01:59;8.85;;;6.37;;
32038;SDS011;18549;42.286;22.688;2023-07-08T07:04:27;11.60;;;6.03;;
32038;SDS011;18549;42.286;22.688;2023-07-08T07:06:55;12.60;;;6.12;;
32038;SDS011;18549;42.286;22.688;2023-07-08T07:09:22;8.65;;;6.28;;
32038;SDS011;18549;42.286;22.688;2023-07-08T07:11:49;10.50;;;7.05;;
32038;SDS011;18549;42.286;22.688;2023-07-08T07:14:15;13.27;;;6.03;;
32038;SDS011;18549;42.286;22.688;2023-07-08T07:16:42;8.15;;;5.97;;
32038;SDS011;18549;42.286;22.688;2023-07-08T07:19:09;9.13;;;5.65;;
32038;SDS011;18549;42.286;22.688;2023-07-08T07:21:37;6.10;;;5.15;;
32038;SDS011;18549;42.286;22.688;2023-07-08T07:24:04;6.97;;;5.32;;
32038;SDS011;18549;42.286;22.688;2023-07-08T07:26:32;7.55;;;5.43;;
32038;SDS011;18549;42.286;22.688;2023-07-08T07:28:58;8.73;;;6.43;;
32038;SDS011;18549;42.286;22.688;2023-07-08T07:31:25;7.70;;;5.40;;
32038;SDS011;18549;42.286;22.688;2023-07-08T07:33:52;11.23;;;6.45;;
32038;SDS011;18549;42.286;22.688;2023-07-08T07:36:18;8.73;;;6.05;;
32038;SDS011;18549;42.286;22.688;2023-07-08T07:38:46;8.05;;;6.05;;
32038;SDS011;18549;42.286;22.688;2023-07-08T07:41:13;7.03;;;4.90;;
32038;SDS011;18549;42.286;22.688;2023-07-08T07:43:40;9.88;;;6.03;;
32038;SDS011;18549;42.286;22.688;2023-07-08T07:46:06;8.18;;;5.72;;
32038;SDS011;18549;42.286;22.688;2023-07-08T07:48:33;6.45;;;5.00;;
32038;SDS011;18549;42.286;22.688;2023-07-08T07:51:00;8.52;;;5.62;;
32038;SDS011;18549;42.286;22.688;2023-07-08T07:53:27;9.75;;;6.07;;
32038;SDS011;18549;42.286;22.688;2023-07-08T07:55:58;9.55;;;5.82;;
32038;SDS011;18549;42.286;22.688;2023-07-08T07:58:25;8.90;;;5.28;;
32038;SDS011;18549;42.286;22.688;2023-07-08T08:00:52;6.95;;;5.43;;
32038;SDS011;18549;42.286;22.688;2023-07-08T08:03:20;7.18;;;5.22;;
32038;SDS011;18549;42.286;22.688;2023-07-08T08:05:47;8.35;;;6.18;;
32038;SDS011;18549;42.286;22.688;2023-07-08T08:08:14;7.35;;;5.05;;
32038;SDS011;18549;42.286;22.688;2023-07-08T08:10:42;6.25;;;5.00;;
32038;SDS011;18549;42.286;22.688;2023-07-08T08:13:10;11.10;;;5.10;;
32038;SDS011;18549;42.286;22.688;2023-07-08T08:15:37;8.65;;;4.68;;
32038;SDS011;18549;42.286;22.688;2023-07-08T08:18:04;5.62;;;4.32;;
32038;SDS011;18549;42.286;22.688;2023-07-08T08:20:31;7.70;;;5.18;;
32038;SDS011;18549;42.286;22.688;2023-07-08T08:22:58;6.85;;;4.87;;
32038;SDS011;18549;42.286;22.688;2023-07-08T08:25:24;7.20;;;4.50;;
32038;SDS011;18549;42.286;22.688;2023-07-08T08:27:51;8.45;;;4.57;;
32038;SDS011;18549;42.286;22.688;2023-07-08T08:30:19;5.25;;;4.05;;
32038;SDS011;18549;42.286;22.688;2023-07-08T08:32:46;5.78;;;4.50;;
32038;SDS011;18549;42.286;22.688;2023-07-08T08:35:13;8.15;;;5.07;;
32038;SDS011;18549;42.286;22.688;2023-07-08T08:37:39;8.23;;;4.18;;
32038;SDS011;18549;42.286;22.688;2023-07-08T08:40:07;6.22;;;4.32;;
32038;SDS011;18549;42.286;22.688;2023-07-08T08:42:40;5.95;;;4.50;;
32038;SDS011;18549;42.286;22.688;2023-07-08T08:45:09;5.10;;;4.22;;
32038;SDS011;18549;42.286;22.688;2023-07-08T08:47:41;5.20;;;4.55;;
32038;SDS011;18549;42.286;22.688;2023-07-08T08:50:13;5.25;;;3.70;;
32038;SDS011;18549;42.286;22.688;2023-07-08T08:52:51;4.05;;;3.35;;
32038;SDS011;18549;42.286;22.688;2023-07-08T08:55:20;5.80;;;3.85;;
32038;SDS011;18549;42.286;22.688;2023-07-08T08:57:49;4.97;;;3.97;;
32038;SDS011;18549;42.286;22.688;2023-07-08T09:00:24;5.10;;;4.23;;
32038;SDS011;18549;42.286;22.688;2023-07-08T09:02:59;6.70;;;4.15;;
32038;SDS011;18549;42.286;22.688;2023-07-08T09:05:29;7.35;;;3.15;;
32038;SDS011;18549;42.286;22.688;2023-07-08T09:08:00;5.40;;;3.47;;
32038;SDS011;18549;42.286;22.688;2023-07-08T09:10:35;6.10;;;3.20;;
32038;SDS011;18549;42.286;22.688;2023-07-08T09:13:11;7.82;;;3.60;;
32038;SDS011;18549;42.286;22.688;2023-07-08T09:15:45;4.85;;;3.55;;
32038;SDS011;18549;42.286;22.688;2023-07-08T09:18:17;5.53;;;3.03;;
32038;SDS011;18549;42.286;22.688;2023-07-08T09:20:47;5.97;;;3.60;;
32038;SDS011;18549;42.286;22.688;2023-07-08T09:23:17;4.28;;;2.42;;
32038;SDS011;18549;42.286;22.688;2023-07-08T09:25:49;6.00;;;3.37;;
32038;SDS011;18549;42.286;22.688;2023-07-08T09:28:20;4.40;;;3.08;;
32038;SDS011;18549;42.286;22.688;2023-07-08T09:30:47;8.30;;;3.83;;
32038;SDS011;18549;42.286;22.688;2023-07-08T09:33:16;5.15;;;2.90;;
32038;SDS011;18549;42.286;22.688;2023-07-08T09:35:43;3.95;;;2.70;;
32038;SDS011;18549;42.286;22.688;2023-07-08T09:38:14;4.57;;;3.15;;
32038;SDS011;18549;42.286;22.688;2023-07-08T09:40:45;5.03;;;2.78;;
32038;SDS011;18549;42.286;22.688;2023-07-08T09:43:16;7.25;;;2.97;;
32038;SDS011;18549;42.286;22.688;2023-07-08T09:45:51;4.55;;;3.40;;
32038;SDS011;18549;42.286;22.688;2023-07-08T09:48:19;4.75;;;3.17;;
32038;SDS011;18549;42.286;22.688;2023-07-08T09:50:51;4.00;;;2.97;;
32038;SDS011;18549;42.286;22.688;2023-07-08T09:53:19;5.43;;;3.30;;
32038;SDS011;18549;42.286;22.688;2023-07-08T09:55:46;3.40;;;2.67;;
32038;SDS011;18549;42.286;22.688;2023-07-08T09:58:13;4.30;;;2.90;;
32038;SDS011;18549;42.286;22.688;2023-07-08T10:00:45;4.12;;;3.00;;
32038;SDS011;18549;42.286;22.688;2023-07-08T10:03:19;3.47;;;2.80;;
32038;SDS011;18549;42.286;22.688;2023-07-08T10:05:49;4.57;;;3.53;;
32038;SDS011;18549;42.286;22.688;2023-07-08T10:08:18;4.65;;;3.03;;
32038;SDS011;18549;42.286;22.688;2023-07-08T10:10:47;5.60;;;3.55;;
32038;SDS011;18549;42.286;22.688;2023-07-08T10:13:26;6.78;;;3.28;;
32038;SDS011;18549;42.286;22.688;2023-07-08T10:16:03;6.12;;;3.65;;
32038;SDS011;18549;42.286;22.688;2023-07-08T10:18:39;4.60;;;3.20;;
32038;SDS011;18549;42.286;22.688;2023-07-08T10:21:08;4.55;;;2.50;;
32038;SDS011;18549;42.286;22.688;2023-07-08T10:23:42;4.37;;;3.22;;
32038;SDS011;18549;42.286;22.688;2023-07-08T10:26:16;6.47;;;3.50;;
32038;SDS011;18549;42.286;22.688;2023-07-08T10:28:53;5.75;;;3.00;;
32038;SDS011;18549;42.286;22.688;2023-07-08T10:31:30;4.75;;;3.15;;
32038;SDS011;18549;42.286;22.688;2023-07-08T10:34:07;3.80;;;2.75;;
32038;SDS011;18549;42.286;22.688;2023-07-08T10:36:46;6.45;;;3.80;;
32038;SDS011;18549;42.286;22.688;2023-07-08T10:42:21;6.68;;;3.42;;
32038;SDS011;18549;42.286;22.688;2023-07-08T10:44:58;4.82;;;2.87;;
32038;SDS011;18549;42.286;22.688;2023-07-08T10:47:43;6.50;;;3.42;;
32038;SDS011;18549;42.286;22.688;2023-07-08T10:50:28;4.30;;;3.47;;
32038;SDS011;18549;42.286;22.688;2023-07-08T10:53:10;4.68;;;3.30;;
32038;SDS011;18549;42.286;22.688;2023-07-08T10:55:50;4.57;;;3.25;;
32038;SDS011;18549;42.286;22.688;2023-07-08T10:58:24;3.90;;;3.00;;
32038;SDS011;18549;42.286;22.688;2023-07-08T11:01:04;3.87;;;2.65;;
32038;SDS011;18549;42.286;22.688;2023-07-08T11:03:43;5.00;;;3.33;;
32038;SDS011;18549;42.286;22.688;2023-07-08T11:06:24;4.65;;;3.22;;
32038;SDS011;18549;42.286;22.688;2023-07-08T11:09:02;5.43;;;3.37;;
32038;SDS011;18549;42.286;22.688;2023-07-08T11:11:34;6.50;;;2.80;;
32038;SDS011;18549;42.286;22.688;2023-07-08T11:14:09;4.35;;;2.95;;
32038;SDS011;18549;42.286;22.688;2023-07-08T11:16:44;5.07;;;3.08;;
32038;SDS011;18549;42.286;22.688;2023-07-08T11:19:15;5.57;;;3.45;;
32038;SDS011;18549;42.286;22.688;2023-07-08T11:21:48;7.72;;;3.55;;
32038;SDS011;18549;42.286;22.688;2023-07-08T11:24:22;5.90;;;3.92;;
32038;SDS011;18549;42.286;22.688;2023-07-08T11:26:52;6.22;;;3.28;;
32038;SDS011;18549;42.286;22.688;2023-07-08T11:29:22;10.35;;;3.35;;
32038;SDS011;18549;42.286;22.688;2023-07-08T11:31:52;4.35;;;3.30;;
32038;SDS011;18549;42.286;22.688;2023-07-08T11:34:21;5.37;;;3.12;;
32038;SDS011;18549;42.286;22.688;2023-07-08T11:36:52;5.25;;;3.35;;
32038;SDS011;18549;42.286;22.688;2023-07-08T11:39:27;4.43;;;2.90;;
32038;SDS011;18549;42.286;22.688;2023-07-08T11:42:04;4.47;;;3.60;;
32038;SDS011;18549;42.286;22.688;2023-07-08T11:44:41;4.05;;;3.05;;
32038;SDS011;18549;42.286;22.688;2023-07-08T11:47:13;4.12;;;2.95;;
32038;SDS011;18549;42.286;22.688;2023-07-08T11:49:45;3.70;;;2.83;;
32038;SDS011;18549;42.286;22.688;2023-07-08T11:52:16;4.53;;;2.70;;
32038;SDS011;18549;42.286;22.688;2023-07-08T11:54:45;5.10;;;3.35;;
32038;SDS011;18549;42.286;22.688;2023-07-08T11:57:16;10.32;;;4.60;;
32038;SDS011;18549;42.286;22.688;2023-07-08T11:59:44;4.57;;;3.28;;
32038;SDS011;18549;42.286;22.688;2023-07-08T12:02:13;4.20;;;3.30;;
32038;SDS011;18549;42.286;22.688;2023-07-08T12:04:52;4.30;;;3.17;;
32038;SDS011;18549;42.286;22.688;2023-07-08T12:07:30;4.97;;;3.50;;
32038;SDS011;18549;42.286;22.688;2023-07-08T12:09:58;8.10;;;3.37;;
32038;SDS011;18549;42.286;22.688;2023-07-08T12:12:31;5.45;;;3.67;;
32038;SDS011;18549;42.286;22.688;2023-07-08T12:15:10;5.93;;;3.40;;
32038;SDS011;18549;42.286;22.688;2023-07-08T12:17:39;3.95;;;3.40;;
32038;SDS011;18549;42.286;22.688;2023-07-08T12:20:13;7.95;;;3.50;;
32038;SDS011;18549;42.286;22.688;2023-07-08T12:22:47;5.35;;;3.70;;
32038;SDS011;18549;42.286;22.688;2023-07-08T12:25:14;3.42;;;2.83;;
32038;SDS011;18549;42.286;22.688;2023-07-08T12:27:44;7.00;;;4.10;;
32038;SDS011;18549;42.286;22.688;2023-07-08T12:30:12;5.30;;;3.15;;
32038;SDS011;18549;42.286;22.688;2023-07-08T12:32:40;8.25;;;3.55;;
32038;SDS011;18549;42.286;22.688;2023-07-08T12:35:08;6.35;;;3.05;;
32038;SDS011;18549;42.286;22.688;2023-07-08T12:37:48;4.93;;;3.35;;
32038;SDS011;18549;42.286;22.688;2023-07-08T12:40:16;4.95;;;4.10;;
32038;SDS011;18549;42.286;22.688;2023-07-08T12:42:43;7.25;;;3.50;;
32038;SDS011;18549;42.286;22.688;2023-07-08T12:45:13;5.10;;;3.33;;
32038;SDS011;18549;42.286;22.688;2023-07-08T12:47:42;9.80;;;3.72;;
32038;SDS011;18549;42.286;22.688;2023-07-08T12:50:09;5.25;;;4.05;;
32038;SDS011;18549;42.286;22.688;2023-07-08T12:52:37;5.87;;;3.58;;
32038;SDS011;18549;42.286;22.688;2023-07-08T12:55:07;3.62;;;2.95;;
32038;SDS011;18549;42.286;22.688;2023-07-08T12:57:35;4.65;;;3.35;;
32038;SDS011;18549;42.286;22.688;2023-07-08T13:00:02;4.65;;;3.62;;
32038;SDS011;18549;42.286;22.688;2023-07-08T13:02:30;5.30;;;3.78;;
32038;SDS011;18549;42.286;22.688;2023-07-08T13:04:59;6.18;;;3.72;;
32038;SDS011;18549;42.286;22.688;2023-07-08T13:07:31;6.12;;;3.67;;
32038;SDS011;18549;42.286;22.688;2023-07-08T13:10:02;10.27;;;4.10;;
32038;SDS011;18549;42.286;22.688;2023-07-08T13:12:31;5.62;;;3.60;;
32038;SDS011;18549;42.286;22.688;2023-07-08T13:15:01;7.50;;;3.92;;
32038;SDS011;18549;42.286;22.688;2023-07-08T13:17:29;6.80;;;4.28;;
32038;SDS011;18549;42.286;22.688;2023-07-08T13:19:56;4.35;;;3.08;;
32038;SDS011;18549;42.286;22.688;2023-07-08T13:22:24;5.10;;;3.75;;
32038;SDS011;18549;42.286;22.688;2023-07-08T13:24:58;5.03;;;3.78;;
32038;SDS011;18549;42.286;22.688;2023-07-08T13:27:26;5.77;;;4.10;;
32038;SDS011;18549;42.286;22.688;2023-07-08T13:29:55;6.47;;;4.25;;
32038;SDS011;18549;42.286;22.688;2023-07-08T13:32:30;4.90;;;3.67;;
32038;SDS011;18549;42.286;22.688;2023-07-08T13:34:57;7.47;;;3.40;;
32038;SDS011;18549;42.286;22.688;2023-07-08T13:37:24;6.62;;;4.18;;
32038;SDS011;18549;42.286;22.688;2023-07-08T13:39:52;6.68;;;3.90;;
32038;SDS011;18549;42.286;22.688;2023-07-08T13:42:20;7.55;;;3.92;;
32038;SDS011;18549;42.286;22.688;2023-07-08T13:44:47;4.28;;;3.85;;
32038;SDS011;18549;42.286;22.688;2023-07-08T13:47:20;5.87;;;4.00;;
32038;SDS011;18549;42.286;22.688;2023-07-08T13:49:52;5.72;;;3.92;;
32038;SDS011;18549;42.286;22.688;2023-07-08T13:52:22;4.68;;;3.47;;
32038;SDS011;18549;42.286;22.688;2023-07-08T13:54:50;4.45;;;3.37;;
32038;SDS011;18549;42.286;22.688;2023-07-08T13:57:19;4.45;;;3.25;;
32038;SDS011;18549;42.286;22.688;2023-07-08T13:59:49;14.07;;;4.35;;
32038;SDS011;18549;42.286;22.688;2023-07-08T14:02:16;9.02;;;5.07;;
32038;SDS011;18549;42.286;22.688;2023-07-08T14:04:48;4.78;;;3.78;;
32038;SDS011;18549;42.286;22.688;2023-07-08T14:07:16;4.93;;;4.00;;
32038;SDS011;18549;42.286;22.688;2023-07-08T14:09:43;6.90;;;3.97;;
32038;SDS011;18549;42.286;22.688;2023-07-08T14:12:10;4.95;;;4.05;;
32038;SDS011;18549;42.286;22.688;2023-07-08T14:14:37;7.80;;;4.22;;
32038;SDS011;18549;42.286;22.688;2023-07-08T14:17:04;7.47;;;4.18;;
32038;SDS011;18549;42.286;22.688;2023-07-08T14:19:34;8.20;;;4.37;;
32038;SDS011;18549;42.286;22.688;2023-07-08T14:22:09;5.53;;;3.90;;
32038;SDS011;18549;42.286;22.688;2023-07-08T14:24:47;6.05;;;4.25;;
32038;SDS011;18549;42.286;22.688;2023-07-08T14:27:13;7.47;;;4.68;;
32038;SDS011;18549;42.286;22.688;2023-07-08T14:29:42;5.45;;;4.20;;
32038;SDS011;18549;42.286;22.688;2023-07-08T14:32:10;8.43;;;4.45;;
32038;SDS011;18549;42.286;22.688;2023-07-08T14:34:43;6.10;;;4.50;;
32038;SDS011;18549;42.286;22.688;2023-07-08T14:37:17;6.35;;;3.72;;
32038;SDS011;18549;42.286;22.688;2023-07-08T14:39:44;7.05;;;4.12;;
32038;SDS011;18549;42.286;22.688;2023-07-08T14:42:11;4.12;;;3.42;;